F/V Manathia — FGSL — position and weather

sailwx.info

Track history (hours):
 
Tides and Currents Weather Stations Pressure Air Temp Water Temp Dewpoint Dewpoint Depression Visibility Wind Speed Wind Dir Waves Ship Positions

F/V Manathia

Last reported at 2017-May-30 02:58 UTC. Time now 2017-May-30 07:10 UTC.
Position N 47°42' W 004°23'.

Length 16 m.

Type: Fishing. MMSI: 228258000.

Date/timePositionNaut miles runAvg speedWind from/ knotsBaromVisibWave heightAir tempDewpointWater temp
2017-May-30 02:58N 47°42' W 004°23'2 0.1
2017-May-29 03:03N 47°44' W 004°22'  
2017-May-26 14:38N 47°43' W 004°21'18 2.5
2017-May-26 07:22N 47°40' W 004°48'1 2.4
2017-May-26 06:57N 47°39' W 004°46'4 3.3
2017-May-26 05:45N 47°39' W 004°40'1 3.1
2017-May-26 05:29N 47°39' W 004°39'2 3.1
2017-May-26 04:48N 47°38' W 004°36'1 3.2
2017-May-26 04:28N 47°38' W 004°35'1 3.3
2017-May-26 04:00N 47°37' W 004°33'2 4.7
2017-May-26 03:30N 47°38' W 004°29'4 7.4
2017-May-26 03:00N 47°41' W 004°26'4 7.4
2017-May-26 02:30N 47°44' W 004°22'16 0.9
2017-May-25 08:15N 47°39' W 004°45'1 3.0
2017-May-25 07:56N 47°39' W 004°46'1 1.3
2017-May-25 07:30N 47°39' W 004°47'1 1.1
2017-May-25 06:59N 47°39' W 004°46'3 3.5
2017-May-25 06:11N 47°39' W 004°42'1 3.3
2017-May-25 06:00N 47°39' W 004°41'2 3.3
2017-May-25 05:29N 47°39' W 004°39'2 3.2
2017-May-25 05:00N 47°38' W 004°36'2 3.2
2017-May-25 04:30N 47°38' W 004°34'2 3.5
2017-May-25 04:00N 47°37' W 004°32'3 6.0
2017-May-25 03:31N 47°39' W 004°29'4 7.7
2017-May-25 03:00N 47°42' W 004°25'4 7.7
2017-May-25 02:30N 47°44' W 004°21'4 7.7
2017-May-25 02:00N 47°47' W 004°17'28 1.7
2017-May-24 10:13N 47°45' W 004°58'1 3.0
2017-May-24 09:59N 47°45' W 004°57'2 3.7
2017-May-24 09:27N 47°44' W 004°54'2 3.7
2017-May-24 09:00N 47°44' W 004°52'4 2.2
2017-May-24 07:08N 47°45' W 004°58'0 3.2
2017-May-24 07:00N 47°45' W 004°58'2 3.3
2017-May-24 06:30N 47°44' W 004°56'2 3.6
2017-May-24 05:56N 47°44' W 004°53'2 3.4
2017-May-24 05:14N 47°44' W 004°49'3 3.0
2017-May-24 04:10N 47°43' W 004°45'1 6.5
2017-May-24 03:57N 47°43' W 004°43'5 8.8
2017-May-24 03:21N 47°44' W 004°35'5 8.5
2017-May-24 02:46N 47°45' W 004°28'3 8.4
2017-May-24 02:27N 47°46' W 004°24'4 8.0
2017-May-24 01:59N 47°47' W 004°18'26 1.5
2017-May-23 08:13N 47°45' W 004°58'1 3.4
2017-May-23 08:00N 47°45' W 004°57'2 3.7
2017-May-23 07:31N 47°44' W 004°55'1 2.9
2017-May-23 07:00N 47°43' W 004°53'2 3.4
2017-May-23 06:30N 47°42' W 004°51'2 3.1
2017-May-23 06:00N 47°41' W 004°49'2 3.4
2017-May-23 05:30N 47°41' W 004°46'2 3.4
2017-May-23 05:00N 47°41' W 004°44'2 3.5
2017-May-23 04:30N 47°42' W 004°41'2 4.7
2017-May-23 04:00N 47°43' W 004°38'4 8.0
2017-May-23 03:30N 47°44' W 004°33'4 7.6
2017-May-23 03:01N 47°45' W 004°27'4 7.5
2017-May-23 02:30N 47°46' W 004°22'1 0.1
2017-May-22 15:04N 47°45' W 004°21'4 8.7
2017-May-22 14:39N 47°43' W 004°26'5 8.2
2017-May-22 14:00N 47°41' W 004°33'4 8.4
2017-May-22 13:29N 47°39' W 004°38'3 3.3
2017-May-22 12:34N 47°40' W 004°42'1 3.6
2017-May-22 12:14N 47°40' W 004°44'1 3.7
2017-May-22 11:59N 47°40' W 004°45'1 2.8
2017-May-22 11:30N 47°40' W 004°47'1 1.5
2017-May-22 11:00N 47°39' W 004°46'1 2.3
2017-May-22 10:26N 47°40' W 004°48'1 3.1
2017-May-22 10:00N 47°41' W 004°46'2 3.1
2017-May-22 09:29N 47°41' W 004°44'2 1.3
2017-May-22 08:08N 47°40' W 004°47'1 4.1
2017-May-22 07:58N 47°41' W 004°46'4 2.7
2017-May-22 06:25N 47°41' W 004°52'2 3.6
2017-May-22 06:00N 47°40' W 004°50'3 3.5
2017-May-22 05:13N 47°41' W 004°46'1 3.6
2017-May-22 05:00N 47°41' W 004°45'3 3.8
2017-May-22 04:11N 47°42' W 004°41'1 6.8
2017-May-22 03:58N 47°43' W 004°39'9 8.6
2017-May-22 02:58N 47°45' W 004°26'  
Track history (hours):
 
Tides and Currents Weather Stations Pressure Air Temp Water Temp Dewpoint Dewpoint Depression Visibility Wind Speed Wind Dir Waves Ship Positions

F/V Manathia

Last reported at 2017-May-30 02:58 UTC. Time now 2017-May-30 07:10 UTC.
Position N 47°42' W 004°23'.

Length 16 m.

Type: Fishing. MMSI: 228258000.

Date/timePositionNaut miles runAvg speedWind from/ knotsBaromVisibWave heightAir tempDewpointWater temp
2017-May-30 02:58N 47°42' W 004°23'2 0.1
2017-May-29 03:03N 47°44' W 004°22'  
2017-May-26 14:38N 47°43' W 004°21'18 2.5
2017-May-26 07:22N 47°40' W 004°48'1 2.4
2017-May-26 06:57N 47°39' W 004°46'4 3.3
2017-May-26 05:45N 47°39' W 004°40'1 3.1
2017-May-26 05:29N 47°39' W 004°39'2 3.1
2017-May-26 04:48N 47°38' W 004°36'1 3.2
2017-May-26 04:28N 47°38' W 004°35'1 3.3
2017-May-26 04:00N 47°37' W 004°33'2 4.7
2017-May-26 03:30N 47°38' W 004°29'4 7.4
2017-May-26 03:00N 47°41' W 004°26'4 7.4
2017-May-26 02:30N 47°44' W 004°22'16 0.9
2017-May-25 08:15N 47°39' W 004°45'1 3.0
2017-May-25 07:56N 47°39' W 004°46'1 1.3
2017-May-25 07:30N 47°39' W 004°47'1 1.1
2017-May-25 06:59N 47°39' W 004°46'3 3.5
2017-May-25 06:11N 47°39' W 004°42'1 3.3
2017-May-25 06:00N 47°39' W 004°41'2 3.3
2017-May-25 05:29N 47°39' W 004°39'2 3.2
2017-May-25 05:00N 47°38' W 004°36'2 3.2
2017-May-25 04:30N 47°38' W 004°34'2 3.5
2017-May-25 04:00N 47°37' W 004°32'3 6.0
2017-May-25 03:31N 47°39' W 004°29'4 7.7
2017-May-25 03:00N 47°42' W 004°25'4 7.7
2017-May-25 02:30N 47°44' W 004°21'4 7.7
2017-May-25 02:00N 47°47' W 004°17'28 1.7
2017-May-24 10:13N 47°45' W 004°58'1 3.0
2017-May-24 09:59N 47°45' W 004°57'2 3.7
2017-May-24 09:27N 47°44' W 004°54'2 3.7
2017-May-24 09:00N 47°44' W 004°52'4 2.2
2017-May-24 07:08N 47°45' W 004°58'0 3.2
2017-May-24 07:00N 47°45' W 004°58'2 3.3
2017-May-24 06:30N 47°44' W 004°56'2 3.6
2017-May-24 05:56N 47°44' W 004°53'2 3.4
2017-May-24 05:14N 47°44' W 004°49'3 3.0
2017-May-24 04:10N 47°43' W 004°45'1 6.5
2017-May-24 03:57N 47°43' W 004°43'5 8.8
2017-May-24 03:21N 47°44' W 004°35'5 8.5
2017-May-24 02:46N 47°45' W 004°28'3 8.4
2017-May-24 02:27N 47°46' W 004°24'4 8.0
2017-May-24 01:59N 47°47' W 004°18'26 1.5
2017-May-23 08:13N 47°45' W 004°58'1 3.4
2017-May-23 08:00N 47°45' W 004°57'2 3.7
2017-May-23 07:31N 47°44' W 004°55'1 2.9
2017-May-23 07:00N 47°43' W 004°53'2 3.4
2017-May-23 06:30N 47°42' W 004°51'2 3.1
2017-May-23 06:00N 47°41' W 004°49'2 3.4
2017-May-23 05:30N 47°41' W 004°46'2 3.4
2017-May-23 05:00N 47°41' W 004°44'2 3.5
2017-May-23 04:30N 47°42' W 004°41'2 4.7
2017-May-23 04:00N 47°43' W 004°38'4 8.0
2017-May-23 03:30N 47°44' W 004°33'4 7.6
2017-May-23 03:01N 47°45' W 004°27'4 7.5
2017-May-23 02:30N 47°46' W 004°22'1 0.1
2017-May-22 15:04N 47°45' W 004°21'4 8.7
2017-May-22 14:39N 47°43' W 004°26'5 8.2
2017-May-22 14:00N 47°41' W 004°33'4 8.4
2017-May-22 13:29N 47°39' W 004°38'3 3.3
2017-May-22 12:34N 47°40' W 004°42'1 3.6
2017-May-22 12:14N 47°40' W 004°44'1 3.7
2017-May-22 11:59N 47°40' W 004°45'1 2.8
2017-May-22 11:30N 47°40' W 004°47'1 1.5
2017-May-22 11:00N 47°39' W 004°46'1 2.3
2017-May-22 10:26N 47°40' W 004°48'1 3.1
2017-May-22 10:00N 47°41' W 004°46'2 3.1
2017-May-22 09:29N 47°41' W 004°44'2 1.3
2017-May-22 08:08N 47°40' W 004°47'1 4.1
2017-May-22 07:58N 47°41' W 004°46'4 2.7
2017-May-22 06:25N 47°41' W 004°52'2 3.6
2017-May-22 06:00N 47°40' W 004°50'3 3.5
2017-May-22 05:13N 47°41' W 004°46'1 3.6
2017-May-22 05:00N 47°41' W 004°45'3 3.8
2017-May-22 04:11N 47°42' W 004°41'1 6.8
2017-May-22 03:58N 47°43' W 004°39'9 8.6
2017-May-22 02:58N 47°45' W 004°26'  

Dump ship's entire track history